Wetterstation Vordersexau
Wetterdaten: Woche 05.12.11 - 11.12.11 (KW49)
Datum Zeit Temp. A. Feuchte A. Luftdruck Regen Wind Richtung Taupunkt Windchill Windben
05.12.2011 00:00 11,6 C 83 % 996,4 hPa 0,0 l/m 31,8 km/h SW 8,8 C 2,6 C 17,6 km/h
05.12.2011 01:00 11,6 C 84 % 996,0 hPa 0,0 l/m 33,7 km/h NW 9,0 C 2,2 C 18,7 km/h
05.12.2011 02:00 8,2 C 86 % 999,6 hPa 1,8 l/m 20,1 km/h W 6,0 C 0,9 C 11,2 km/h
05.12.2011 03:00 7,1 C 86 % 1001,4 hPa 0,7 l/m 4,5 km/h S 4,9 C 7,1 C 2,5 km/h
05.12.2011 04:00 6,8 C 86 % 1001,8 hPa 0,0 l/m 4,5 km/h W 4,6 C 6,8 C 2,5 km/h
05.12.2011 05:00 6,5 C 86 % 1002,3 hPa 0,4 l/m 5,2 km/h W 4,3 C 6,5 C 2,9 km/h
05.12.2011 06:00 7,2 C 86 % 1003,1 hPa 0,0 l/m 8,4 km/h N-NW 5,0 C 5,6 C 4,7 km/h
05.12.2011 07:00 6,8 C 86 % 1005,4 hPa 0,0 l/m 10,4 km/h S-SO 4,6 C 3,8 C 5,8 km/h
05.12.2011 08:00 3,9 C 86 % 1007,1 hPa 1,1 l/m 3,9 km/h W-SW 1,8 C 3,9 C 2,2 km/h
05.12.2011 09:00 4,4 C 86 % 1008,6 hPa 0,4 l/m 20,1 km/h W-NW 2,3 C -4,0 C 11,2 km/h
05.12.2011 10:00 9,4 C 79 % 1009,5 hPa 0,0 l/m 1,9 km/h W 5,9 C 9,4 C 1,1 km/h
05.12.2011 11:00 7,6 C 78 % 1009,6 hPa 0,0 l/m 7,8 km/h W 4,0 C 6,5 C 4,3 km/h
05.12.2011 12:00 7,3 C 73 % 1009,5 hPa 0,0 l/m 9,1 km/h W 2,8 C 5,2 C 5,0 km/h
05.12.2011 13:00 8,8 C 70 % 1009,8 hPa 0,0 l/m 42,8 km/h W 3,6 C -3,3 C 23,8 km/h
05.12.2011 14:00 7,9 C 71 % 1010,0 hPa 0,0 l/m 24,0 km/h W 3,0 C -0,7 C 13,3 km/h
05.12.2011 15:00 6,5 C 73 % 1010,1 hPa 0,0 l/m 13,6 km/h W-SW 2,0 C 1,6 C 7,6 km/h
05.12.2011 16:00 5,2 C 77 % 1010,7 hPa 0,0 l/m 16,2 km/h W-SW 1,5 C -1,3 C 9,0 km/h
05.12.2011 17:00 4,4 C 81 % 1010,9 hPa 0,0 l/m 5,2 km/h SW 1,4 C 4,4 C 2,9 km/h
05.12.2011 18:00 4,4 C 82 % 1011,3 hPa 0,0 l/m 10,4 km/h W-SW 1,6 C 1,1 C 5,8 km/h
05.12.2011 19:00 4,7 C 80 % 1011,5 hPa 0,0 l/m 20,1 km/h W-SW 1,6 C -3,6 C 11,2 km/h
05.12.2011 20:00 5,0 C 80 % 1011,4 hPa 0,0 l/m 23,3 km/h W-SW 1,8 C -4,4 C 13,0 km/h
05.12.2011 21:00 5,5 C 77 % 1011,3 hPa 0,0 l/m 20,1 km/h W 1,8 C -2,6 C 11,2 km/h
05.12.2011 22:00 5,4 C 77 % 1010,9 hPa 0,0 l/m 29,2 km/h W 1,7 C -5,6 C 16,2 km/h
05.12.2011 23:00 5,3 C 79 % 1010,8 hPa 0,0 l/m 22,7 km/h W-SW 2,0 C -3,8 C 12,6 km/h
06.12.2011 00:00 5,6 C 78 % 1010,5 hPa 0,0 l/m 22,7 km/h W-SW 2,1 C -3,4 C 12,6 km/h
06.12.2011 01:00 5,6 C 78 % 1010,4 hPa 0,0 l/m 31,1 km/h W-SW 2,1 C -5,8 C 17,3 km/h
06.12.2011 02:00 5,8 C 78 % 1010,0 hPa 0,0 l/m 18,1 km/h SW 2,3 C -1,4 C 10,1 km/h
06.12.2011 03:00 5,6 C 79 % 1009,6 hPa 0,0 l/m 34,3 km/h W 2,3 C -6,5 C 19,1 km/h
06.12.2011 04:00 5,5 C 81 % 1009,2 hPa 0,0 l/m 22,7 km/h W 2,5 C -3,5 C 12,6 km/h
06.12.2011 05:00 5,1 C 83 % 1009,3 hPa 0,0 l/m 22,7 km/h W-SW 2,5 C -4,0 C 12,6 km/h
06.12.2011 06:00 5,2 C 83 % 1009,5 hPa 0,0 l/m 14,9 km/h W 2,6 C -0,6 C 8,3 km/h
06.12.2011 07:00 5,1 C 83 % 1009,7 hPa 0,0 l/m 20,1 km/h W 2,5 C -3,1 C 11,2 km/h
06.12.2011 08:00 4,8 C 84 % 1010,0 hPa 0,0 l/m 35,0 km/h W 2,3 C -7,8 C 19,4 km/h
06.12.2011 09:00 4,6 C 86 % 1010,6 hPa 0,4 l/m 20,1 km/h W-SW 2,5 C -3,7 C 11,2 km/h
06.12.2011 10:00 5,3 C 86 % 1011,1 hPa 0,0 l/m 18,8 km/h SW 3,2 C -2,3 C 10,4 km/h
06.12.2011 11:00 5,9 C 85 % 1010,9 hPa 0,0 l/m 20,7 km/h W-SW 3,6 C -2,3 C 11,5 km/h
06.12.2011 12:00 5,8 C 85 % 1010,8 hPa 0,0 l/m 20,7 km/h W 3,5 C -2,4 C 11,5 km/h
06.12.2011 13:00 6,6 C 84 % 1010,3 hPa 0,0 l/m 23,3 km/h SW 4,1 C -2,2 C 13,0 km/h
06.12.2011 14:00 6,3 C 84 % 1010,1 hPa 0,0 l/m 24,6 km/h W-NW 3,8 C -3,1 C 13,7 km/h
06.12.2011 15:00 6,3 C 83 % 1010,1 hPa 0,0 l/m 28,5 km/h NW 3,6 C -4,2 C 15,8 km/h
06.12.2011 16:00 5,8 C 84 % 1010,7 hPa 0,0 l/m 7,8 km/h N 3,3 C 4,6 C 4,3 km/h
06.12.2011 17:00 3,9 C 86 % 1011,4 hPa 0,4 l/m 0,0 km/h W 1,8 C 3,9 C 0,0 km/h
06.12.2011 18:00 5,5 C 85 % 1011,4 hPa 0,0 l/m 20,1 km/h W-SW 3,2 C -2,6 C 11,2 km/h
06.12.2011 19:00 5,8 C 82 % 1012,0 hPa 0,0 l/m 31,1 km/h W 3,0 C -5,5 C 17,3 km/h
06.12.2011 20:00 5,8 C 82 % 1012,2 hPa 0,0 l/m 27,9 km/h SW 3,0 C -4,7 C 15,5 km/h
06.12.2011 21:00 5,8 C 82 % 1012,2 hPa 0,0 l/m 20,1 km/h W-SW 3,0 C -2,2 C 11,2 km/h
06.12.2011 22:00 5,9 C 83 % 1012,8 hPa 0,0 l/m 29,2 km/h W-SW 3,2 C -4,9 C 16,2 km/h
06.12.2011 23:00 5,9 C 83 % 1013,5 hPa 0,0 l/m 33,7 km/h SW 3,2 C -6,0 C 18,7 km/h
07.12.2011 00:00 6,1 C 81 % 1013,2 hPa 0,0 l/m 7,8 km/h S-SW 3,1 C 4,9 C 4,3 km/h
07.12.2011 01:00 6,3 C 80 % 1012,5 hPa 0,0 l/m 33,0 km/h SW 3,1 C -5,2 C 18,4 km/h
07.12.2011 02:00 6,5 C 81 % 1011,6 hPa 0,0 l/m 24,6 km/h W 3,5 C -2,8 C 13,7 km/h
07.12.2011 03:00 6,5 C 82 % 1011,8 hPa 0,0 l/m 27,9 km/h SW 3,7 C -3,7 C 15,5 km/h
07.12.2011 04:00 6,8 C 82 % 1011,1 hPa 0,0 l/m 29,8 km/h W-SW 3,9 C -3,8 C 16,6 km/h
07.12.2011 05:00 6,8 C 83 % 1010,3 hPa 0,0 l/m 28,5 km/h W-SW 4,1 C -3,5 C 15,8 km/h
07.12.2011 06:00 6,9 C 84 % 1009,5 hPa 0,0 l/m 35,0 km/h W-SW 4,4 C -4,8 C 19,4 km/h
07.12.2011 07:00 7,4 C 83 % 1008,9 hPa 0,0 l/m 27,9 km/h SW 4,7 C -2,5 C 15,5 km/h
07.12.2011 08:00 7,3 C 85 % 1008,7 hPa 0,0 l/m 30,5 km/h W-SW 4,9 C -3,3 C 16,9 km/h
07.12.2011 09:00 7,4 C 86 % 1008,8 hPa 0,4 l/m 31,1 km/h SW 5,2 C -3,3 C 17,3 km/h
07.12.2011 10:00 8,2 C 85 % 1009,0 hPa 0,0 l/m 34,3 km/h W-SW 5,8 C -2,8 C 19,1 km/h
07.12.2011 11:00 8,6 C 85 % 1008,5 hPa 0,0 l/m 33,7 km/h W-SW 6,2 C -2,1 C 18,7 km/h
07.12.2011 12:00 9,5 C 83 % 1008,1 hPa 0,0 l/m 44,1 km/h W 6,8 C -2,4 C 24,5 km/h
07.12.2011 13:00 9,5 C 83 % 1007,9 hPa 0,0 l/m 18,8 km/h W-NW 6,8 C 3,1 C 10,4 km/h
07.12.2011 14:00 9,1 C 85 % 1008,2 hPa 0,0 l/m 14,3 km/h W-SW 6,7 C 4,4 C 7,9 km/h
07.12.2011 15:00 9,4 C 84 % 1008,5 hPa 0,0 l/m 33,0 km/h N 6,8 C -0,8 C 18,4 km/h
07.12.2011 16:00 6,9 C 86 % 1010,9 hPa 4,3 l/m 9,1 km/h N 4,7 C 4,8 C 5,0 km/h
07.12.2011 17:00 7,2 C 81 % 1011,9 hPa 0,0 l/m 22,0 km/h W-SW 4,2 C -1,0 C 12,2 km/h
07.12.2011 18:00 7,5 C 77 % 1012,3 hPa 0,0 l/m 20,7 km/h W 3,7 C -0,2 C 11,5 km/h
07.12.2011 19:00 7,3 C 78 % 1013,2 hPa 0,0 l/m 18,8 km/h W-NW 3,7 C 0,2 C 10,4 km/h
07.12.2011 20:00 7,5 C 79 % 1013,7 hPa 0,0 l/m 21,4 km/h W-NW 4,1 C -0,4 C 11,9 km/h
07.12.2011 21:00 7,8 C 71 % 1015,5 hPa 0,0 l/m 5,2 km/h W 2,9 C 7,8 C 2,9 km/h
07.12.2011 22:00 7,0 C 72 % 1017,2 hPa 0,0 l/m 1,9 km/h W 2,3 C 7,0 C 1,1 km/h
07.12.2011 23:00 6,5 C 73 % 1018,2 hPa 0,0 l/m 1,3 km/h W-NW 2,0 C 6,5 C 0,7 km/h
08.12.2011 00:00 6,6 C 74 % 1018,6 hPa 0,0 l/m 10,4 km/h W-NW 2,3 C 3,6 C 5,8 km/h
08.12.2011 01:00 6,6 C 75 % 1019,7 hPa 0,0 l/m 1,9 km/h W-NW 2,5 C 6,6 C 1,1 km/h
08.12.2011 02:00 6,1 C 72 % 1021,2 hPa 0,0 l/m 0,0 km/h W 1,4 C 6,1 C 0,0 km/h
08.12.2011 03:00 4,9 C 73 % 1022,2 hPa 0,0 l/m 0,0 km/h W 0,5 C 4,9 C 0,0 km/h
08.12.2011 04:00 4,8 C 80 % 1022,5 hPa 0,0 l/m 0,6 km/h SW 1,6 C 4,8 C 0,4 km/h
08.12.2011 05:00 3,4 C 84 % 1023,4 hPa 0,0 l/m 0,0 km/h W-NW 1,0 C 3,4 C 0,0 km/h
08.12.2011 06:00 2,8 C 85 % 1024,2 hPa 0,0 l/m 3,2 km/h W 0,5 C 2,8 C 1,8 km/h
08.12.2011 07:00 1,8 C 86 % 1024,4 hPa 0,0 l/m 0,0 km/h NO -0,3 C 1,8 C 0,0 km/h
08.12.2011 08:00 1,4 C 86 % 1024,9 hPa 0,0 l/m 0,0 km/h NO -0,7 C 1,4 C 0,0 km/h
08.12.2011 09:00 4,8 C 85 % 1025,2 hPa 0,0 l/m 0,0 km/h NO 2,5 C 4,8 C 0,0 km/h
08.12.2011 10:00 10,2 C 73 % 1025,3 hPa 0,0 l/m 0,0 km/h W-SW 5,6 C 10,2 C 0,0 km/h
08.12.2011 11:00 9,1 C 71 % 1024,8 hPa 0,0 l/m 28,5 km/h S-SW 4,1 C -0,3 C 15,8 km/h
08.12.2011 12:00 9,3 C 73 % 1024,7 hPa 0,0 l/m 29,2 km/h S-SW 4,7 C -0,2 C 16,2 km/h
08.12.2011 13:00 8,9 C 72 % 1023,8 hPa 0,0 l/m 25,3 km/h W-SW 4,1 C 0,3 C 14,0 km/h
08.12.2011 14:00 8,9 C 70 % 1022,8 hPa 0,0 l/m 24,6 km/h S-SW 3,7 C 0,5 C 13,7 km/h
08.12.2011 15:00 9,6 C 68 % 1021,9 hPa 0,0 l/m 21,4 km/h W-SW 4,0 C 2,3 C 11,9 km/h
08.12.2011 16:00 7,3 C 74 % 1021,2 hPa 0,0 l/m 0,0 km/h S 3,0 C 7,3 C 0,0 km/h
08.12.2011 17:00 6,5 C 76 % 1020,7 hPa 0,0 l/m 7,8 km/h S-SW 2,6 C 5,3 C 4,3 km/h
08.12.2011 18:00 7,9 C 70 % 1020,0 hPa 0,0 l/m 17,5 km/h S-SW 2,8 C 1,5 C 9,7 km/h
08.12.2011 19:00 8,4 C 68 % 1019,3 hPa 0,0 l/m 25,3 km/h SW 2,8 C -0,4 C 14,0 km/h
08.12.2011 20:00 8,4 C 69 % 1018,4 hPa 0,0 l/m 9,1 km/h W-SW 3,0 C 6,4 C 5,0 km/h
08.12.2011 21:00 9,3 C 68 % 1017,9 hPa 0,0 l/m 46,7 km/h SW 3,7 C -3,0 C 25,9 km/h
08.12.2011 22:00 9,5 C 69 % 1017,4 hPa 0,0 l/m 22,7 km/h SW 4,1 C 1,8 C 12,6 km/h
08.12.2011 23:00 9,6 C 70 % 1016,5 hPa 0,0 l/m 40,2 km/h SW 4,4 C -1,7 C 22,3 km/h
09.12.2011 00:00 9,3 C 71 % 1016,2 hPa 0,0 l/m 25,3 km/h S-SW 4,3 C 0,8 C 14,0 km/h
09.12.2011 01:00 9,9 C 69 % 1015,5 hPa 0,0 l/m 46,7 km/h W-NW 4,5 C -2,1 C 25,9 km/h
09.12.2011 02:00 10,4 C 68 % 1015,2 hPa 0,0 l/m 24,0 km/h W-SW 4,8 C 2,6 C 13,3 km/h
09.12.2011 03:00 10,6 C 69 % 1014,8 hPa 0,0 l/m 42,8 km/h W-SW 5,2 C -0,6 C 23,8 km/h
09.12.2011 04:00 10,6 C 70 % 1014,3 hPa 0,0 l/m 21,4 km/h S-SW 5,4 C 3,6 C 11,9 km/h
09.12.2011 05:00 10,5 C 72 % 1013,9 hPa 0,0 l/m 51,2 km/h S-SW 5,7 C -1,7 C 28,4 km/h
09.12.2011 06:00 10,7 C 74 % 1013,3 hPa 0,0 l/m 45,4 km/h S-SW 6,3 C -0,8 C 25,2 km/h
09.12.2011 07:00 10,7 C 75 % 1012,9 hPa 0,0 l/m 60,3 km/h SW 6,5 C -2,0 C 33,5 km/h
09.12.2011 08:00 10,7 C 75 % 1013,1 hPa 0,0 l/m 45,4 km/h W 6,5 C -0,8 C 25,2 km/h
09.12.2011 09:00 10,8 C 75 % 1013,3 hPa 0,0 l/m 45,4 km/h W-SW 6,5 C -0,6 C 25,2 km/h
09.12.2011 10:00 10,8 C 75 % 1013,5 hPa 0,0 l/m 56,4 km/h W-SW 6,5 C -1,6 C 31,3 km/h
09.12.2011 11:00 11,1 C 73 % 1013,1 hPa 0,0 l/m 20,1 km/h W-SW 6,4 C 4,7 C 11,2 km/h
09.12.2011 12:00 11,3 C 72 % 1012,9 hPa 0,0 l/m 29,2 km/h W 6,4 C 2,6 C 16,2 km/h
09.12.2011 13:00 11,3 C 74 % 1012,5 hPa 0,0 l/m 59,6 km/h W-SW 6,8 C -1,1 C 33,1 km/h
09.12.2011 14:00 11,2 C 76 % 1012,0 hPa 0,0 l/m 29,8 km/h W-SW 7,1 C 2,4 C 16,6 km/h
09.12.2011 15:00 10,9 C 79 % 1012,0 hPa 0,0 l/m 24,0 km/h SW 7,4 C 3,3 C 13,3 km/h
09.12.2011 16:00 10,4 C 81 % 1011,9 hPa 0,0 l/m 22,7 km/h W 7,3 C 3,0 C 12,6 km/h
09.12.2011 17:00 9,9 C 83 % 1011,5 hPa 0,0 l/m 26,6 km/h N-NW 7,2 C 1,3 C 14,8 km/h
09.12.2011 18:00 8,0 C 86 % 1012,1 hPa 0,4 l/m 4,5 km/h N-NO 5,8 C 8,0 C 2,5 km/h
09.12.2011 19:00 6,9 C 85 % 1012,8 hPa 1,4 l/m 0,0 km/h SO 4,6 C 6,9 C 0,0 km/h
09.12.2011 20:00 6,9 C 85 % 1012,6 hPa 3,2 l/m 0,0 km/h O 4,6 C 6,9 C 0,0 km/h
09.12.2011 21:00 6,9 C 85 % 1012,7 hPa 1,4 l/m 0,0 km/h O 4,6 C 6,9 C 0,0 km/h
09.12.2011 22:00 7,0 C 85 % 1012,7 hPa 1,4 l/m 0,0 km/h NW 4,7 C 7,0 C 0,0 km/h
09.12.2011 23:00 6,4 C 84 % 1012,9 hPa 0,4 l/m 0,0 km/h W-NW 3,9 C 6,4 C 0,0 km/h
10.12.2011 00:00 6,1 C 83 % 1012,8 hPa 0,4 l/m 0,0 km/h W-NW 3,4 C 6,1 C 0,0 km/h
10.12.2011 01:00 5,9 C 83 % 1012,7 hPa 0,4 l/m 0,0 km/h W-NW 3,2 C 5,9 C 0,0 km/h
10.12.2011 02:00 5,8 C 82 % 1012,8 hPa 0,7 l/m 0,0 km/h SW 3,0 C 5,8 C 0,0 km/h
10.12.2011 03:00 5,9 C 82 % 1012,8 hPa 0,4 l/m 0,0 km/h O 3,1 C 5,9 C 0,0 km/h
10.12.2011 04:00 5,4 C 82 % 1013,2 hPa 1,1 l/m 0,0 km/h NO 2,6 C 5,4 C 0,0 km/h
10.12.2011 05:00 5,1 C 82 % 1013,2 hPa 0,7 l/m 0,0 km/h NO 2,3 C 5,1 C 0,0 km/h
10.12.2011 06:00 5,0 C 83 % 1013,6 hPa 0,7 l/m 0,0 km/h NO 2,4 C 5,0 C 0,0 km/h
10.12.2011 07:00 4,8 C 83 % 1014,1 hPa 0,7 l/m 0,0 km/h SO 2,2 C 4,8 C 0,0 km/h
10.12.2011 08:00 4,8 C 83 % 1014,3 hPa 0,4 l/m 0,0 km/h SO 2,2 C 4,8 C 0,0 km/h
10.12.2011 09:00 5,1 C 82 % 1014,4 hPa 0,4 l/m 0,0 km/h N-NO 2,3 C 5,1 C 0,0 km/h
10.12.2011 10:00 5,6 C 81 % 1015,0 hPa 0,0 l/m 0,0 km/h O-SO 2,6 C 5,6 C 0,0 km/h
10.12.2011 11:00 6,3 C 82 % 1015,0 hPa 0,4 l/m 0,0 km/h O-SO 3,5 C 6,3 C 0,0 km/h
10.12.2011 12:00 5,9 C 84 % 1014,8 hPa 0,0 l/m 0,0 km/h SO 3,4 C 5,9 C 0,0 km/h
10.12.2011 13:00 5,8 C 85 % 1014,5 hPa 0,0 l/m 0,0 km/h S-SO 3,5 C 5,8 C 0,0 km/h
10.12.2011 14:00 6,1 C 86 % 1014,6 hPa 0,0 l/m 0,0 km/h SO 3,9 C 6,1 C 0,0 km/h
10.12.2011 15:00 5,8 C 87 % 1014,8 hPa 0,0 l/m 0,0 km/h SO 3,8 C 5,8 C 0,0 km/h
10.12.2011 16:00 5,4 C 86 % 1015,4 hPa 0,0 l/m 0,0 km/h SO 3,3 C 5,4 C 0,0 km/h
10.12.2011 17:00 5,1 C 86 % 1015,6 hPa 0,0 l/m 0,0 km/h O 3,0 C 5,1 C 0,0 km/h
10.12.2011 18:00 4,9 C 86 % 1016,1 hPa 0,4 l/m 0,0 km/h N 2,8 C 4,9 C 0,0 km/h
11.12.2011 06:00 3,3 C 87 % 1016,2 hPa 0,0 l/m 0,0 km/h SO 1,3 C 3,3 C 0,0 km/h
11.12.2011 07:00 3,2 C 87 % 1016,3 hPa 0,0 l/m 0,0 km/h SO 1,2 C 3,2 C 0,0 km/h
11.12.2011 08:00 3,3 C 87 % 1016,4 hPa 0,0 l/m 0,0 km/h NO 1,3 C 3,3 C 0,0 km/h
11.12.2011 09:00 4,3 C 87 % 1016,5 hPa 0,0 l/m 0,0 km/h SO 2,3 C 4,3 C 0,0 km/h
11.12.2011 10:00 5,6 C 86 % 1016,3 hPa 0,0 l/m 0,0 km/h S-SO 3,4 C 5,6 C 0,0 km/h
11.12.2011 11:00 10,3 C 78 % 1015,5 hPa 0,0 l/m 0,0 km/h S-SO 6,6 C 10,3 C 0,0 km/h
11.12.2011 12:00 10,8 C 71 % 1014,5 hPa 0,0 l/m 0,0 km/h W 5,8 C 10,8 C 0,0 km/h
11.12.2011 13:00 9,9 C 71 % 1014,2 hPa 0,0 l/m 0,0 km/h W-SW 4,9 C 9,9 C 0,0 km/h
11.12.2011 14:00 11,4 C 66 % 1013,3 hPa 0,0 l/m 0,0 km/h W 5,3 C 11,4 C 0,0 km/h
11.12.2011 15:00 8,1 C 73 % 1013,1 hPa 0,0 l/m 0,0 km/h N-NW 3,6 C 8,1 C 0,0 km/h
11.12.2011 16:00 6,8 C 79 % 1012,8 hPa 0,0 l/m 0,0 km/h O-SO 3,4 C 6,8 C 0,0 km/h
11.12.2011 17:00 5,8 C 84 % 1012,8 hPa 0,0 l/m 0,0 km/h O 3,3 C 5,8 C 0,0 km/h
11.12.2011 18:00 5,5 C 85 % 1012,5 hPa 0,0 l/m 0,0 km/h O-NO 3,2 C 5,5 C 0,0 km/h
11.12.2011 19:00 5,2 C 86 % 1012,4 hPa 0,0 l/m 0,0 km/h O 3,1 C 5,2 C 0,0 km/h
11.12.2011 20:00 4,6 C 86 % 1011,9 hPa 0,0 l/m 0,0 km/h O-NO 2,5 C 4,6 C 0,0 km/h
11.12.2011 21:00 4,6 C 86 % 1011,3 hPa 0,0 l/m 0,0 km/h O 2,5 C 4,6 C 0,0 km/h
11.12.2011 22:00 2,9 C 87 % 1010,8 hPa 0,0 l/m 0,0 km/h O-SO 1,0 C 2,9 C 0,0 km/h
11.12.2011 23:00 2,2 C 86 % 1010,5 hPa 0,0 l/m 0,0 km/h O-NO 0,1 C 2,2 C 0,0 km/h
Min-Datum _ 08.12.11 11.12.11 05.12.11 - 06.12.11 - 08.12.11 06.12.11 06.12.11
_ Min-Zeit 08:30 14:30 01:30 - 17:30 - 08:30 08:30 17:30
Minimum _ 1,4 C 66 % 996,0 hPa - 0,0 km/h - -0,7 C -7,8 C 0,0 km/h
Max-Datum _ 05.12.11 10.12.11 08.12.11 07.12.11 09.12.11 - 05.12.11 11.12.11 09.12.11
_ Max-Zeit 00:30 15:30 10:30 16:30 07:30 - 01:30 14:30 07:30
Maximum _ 11,6 C 87 % 1025,3 hPa 4,3 l/m 60,3 km/h
SW
- 9,0 C 11,4 C 33,5 km/h
SW
Durchschnitt _ 6,9 C 80 % 1013,1 hPa #24,2 l/m 15,8 km/h W-SW 3,7 C 1,9 C 8,8 km/h
www.sexauwetter.de